Time;durP1;ratioP1;P1;durP2;ratioP2;P2;SDS_P1;SDS_P2;PMS_P1;PMS_P2;Temp;Humidity;BMP_temperature;BMP_pressure;BME280_temperature;BME280_humidity;BME280_pressure;Samples;Min_cycle;Max_cycle;Signal;HPM_P1;HPM_P2
2022/09/29 00:00:26;;;;;;;13.43;8.13;;;;;;;;;;4996641;28;20092;-82
2022/09/29 00:02:52;;;;;;;14.45;9.15;;;;;;;;;;4978264;28;20177;-80
2022/09/29 00:05:19;;;;;;;12.55;8.32;;;;;;;;;;5006218;28;20029;-80
2022/09/29 00:07:45;;;;;;;19.08;9.85;;;;;;;;;;5007209;28;20477;-81
2022/09/29 00:10:14;;;;;;;17.80;9.38;;;;;;;;;;5000875;28;20030;-80
2022/09/29 00:13:00;;;;;;;16.35;8.77;;;;;;;;;;4980148;28;20025;-79
2022/09/29 00:15:26;;;;;;;15.52;8.25;;;;;;;;;;4994587;28;20031;-79
2022/09/29 00:17:52;;;;;;;11.85;7.47;;;;;;;;;;4992904;28;20034;-79
2022/09/29 00:20:18;;;;;;;10.90;6.82;;;;;;;;;;4993721;28;20769;-78
2022/09/29 00:22:48;;;;;;;12.80;6.95;;;;;;;;;;4993752;28;20358;-80
2022/09/29 00:25:17;;;;;;;10.98;6.90;;;;;;;;;;4993240;28;20084;-81
2022/09/29 00:27:54;;;;;;;13.98;8.57;;;;;;;;;;4976157;28;20026;-80
2022/09/29 00:30:20;;;;;;;13.10;6.85;;;;;;;;;;4994892;28;20077;-79
2022/09/29 00:32:46;;;;;;;14.10;7.32;;;;;;;;;;4978133;28;20022;-80
2022/09/29 00:35:16;;;;;;;11.68;7.32;;;;;;;;;;4979247;28;20034;-79
2022/09/29 00:37:42;;;;;;;13.10;6.75;;;;;;;;;;4996688;28;20034;-82
2022/09/29 00:40:19;;;;;;;13.02;7.05;;;;;;;;;;4981127;28;20035;-81
2022/09/29 00:42:50;;;;;;;11.15;7.00;;;;;;;;;;4981256;28;20135;-82
2022/09/29 00:45:25;;;;;;;13.80;7.43;;;;;;;;;;4981451;28;20023;-81
2022/09/29 00:48:10;;;;;;;15.27;8.38;;;;;;;;;;4981127;28;20042;-82
2022/09/29 00:51:03;;;;;;;14.68;8.18;;;;;;;;;;4996806;28;20030;-81
2022/09/29 00:53:29;;;;;;;13.05;8.07;;;;;;;;;;4998714;28;20049;-82
2022/09/29 00:56:01;;;;;;;13.57;7.78;;;;;;;;;;5008352;28;20042;-81
2022/09/29 00:58:36;;;;;;;13.95;7.93;;;;;;;;;;4990033;28;20026;-81
2022/09/29 01:01:03;;;;;;;10.35;6.13;;;;;;;;;;4998871;28;20030;-81
2022/09/29 01:03:32;;;;;;;12.05;7.22;;;;;;;;;;4981263;28;20018;-79
2022/09/29 01:06:09;;;;;;;9.73;6.68;;;;;;;;;;4999564;28;20090;-81
2022/09/29 01:08:38;;;;;;;9.65;5.82;;;;;;;;;;4984936;28;20497;-80
2022/09/29 01:11:05;;;;;;;11.55;6.38;;;;;;;;;;4998018;28;20034;-82
2022/09/29 01:14:02;;;;;;;10.50;6.28;;;;;;;;;;4980845;28;20037;-79
2022/09/29 01:16:28;;;;;;;11.82;6.15;;;;;;;;;;4992765;28;20034;-79
2022/09/29 01:18:55;;;;;;;10.80;6.18;;;;;;;;;;4994744;28;20037;-80
2022/09/29 01:21:21;;;;;;;10.73;6.55;;;;;;;;;;4978129;28;20065;-80
2022/09/29 01:24:06;;;;;;;11.07;6.75;;;;;;;;;;4995129;28;20022;-79
2022/09/29 01:26:34;;;;;;;10.25;6.45;;;;;;;;;;4990454;28;20030;-78
2022/09/29 01:29:24;;;;;;;10.05;5.93;;;;;;;;;;4975409;28;20117;-79
2022/09/29 01:31:56;;;;;;;9.60;5.47;;;;;;;;;;4954500;28;20026;-79
2022/09/29 01:34:24;;;;;;;8.85;5.85;;;;;;;;;;4994605;28;20029;-80
2022/09/29 01:36:59;;;;;;;7.90;5.40;;;;;;;;;;4981542;28;20077;-80
2022/09/29 01:39:28;;;;;;;15.13;6.38;;;;;;;;;;4977048;28;20117;-81
2022/09/29 01:42:24;;;;;;;12.10;5.97;;;;;;;;;;4976457;28;20033;-79
2022/09/29 01:44:53;;;;;;;9.90;5.75;;;;;;;;;;4971364;28;20030;-80
2022/09/29 01:47:21;;;;;;;11.10;6.38;;;;;;;;;;4992235;28;20048;-79
2022/09/29 01:49:49;;;;;;;16.90;7.60;;;;;;;;;;4992461;28;20033;-78
2022/09/29 01:52:27;;;;;;;14.75;7.45;;;;;;;;;;4991946;28;20038;-77
2022/09/29 01:54:56;;;;;;;16.58;7.30;;;;;;;;;;4974301;28;20448;-78
2022/09/29 01:57:32;;;;;;;15.43;7.70;;;;;;;;;;4990968;28;20038;-79
2022/09/29 02:00:10;;;;;;;13.23;7.03;;;;;;;;;;4991940;28;20022;-78
2022/09/29 02:02:40;;;;;;;13.55;7.93;;;;;;;;;;4992516;28;20026;-78
2022/09/29 02:05:09;;;;;;;10.48;6.47;;;;;;;;;;4983075;28;20029;-79
2022/09/29 02:07:39;;;;;;;11.88;7.50;;;;;;;;;;4991662;28;20084;-79
2022/09/29 02:10:10;;;;;;;12.93;6.97;;;;;;;;;;4994559;28;20370;-79
2022/09/29 02:12:37;;;;;;;11.27;6.63;;;;;;;;;;4994300;28;20026;-79
2022/09/29 02:15:06;;;;;;;14.75;7.03;;;;;;;;;;4994753;28;20270;-79
2022/09/29 02:17:34;;;;;;;12.25;6.47;;;;;;;;;;4976056;28;20524;-79
2022/09/29 02:20:00;;;;;;;11.07;6.55;;;;;;;;;;4992934;28;20098;-79
2022/09/29 02:22:26;;;;;;;14.27;6.70;;;;;;;;;;4993200;28;20018;-79
2022/09/29 02:24:54;;;;;;;14.05;6.78;;;;;;;;;;4990895;28;20018;-79
2022/09/29 02:27:22;;;;;;;11.32;6.28;;;;;;;;;;4991397;28;20031;-79
2022/09/29 02:29:48;;;;;;;12.98;7.47;;;;;;;;;;4992680;28;20189;-79
2022/09/29 02:32:14;;;;;;;17.95;7.97;;;;;;;;;;4975779;28;20027;-79
2022/09/29 02:34:42;;;;;;;11.82;6.75;;;;;;;;;;4992241;28;20027;-79
2022/09/29 02:37:11;;;;;;;15.35;7.63;;;;;;;;;;4973473;28;20036;-78
2022/09/29 02:39:40;;;;;;;13.27;7.05;;;;;;;;;;4991045;28;20508;-79
2022/09/29 02:42:29;;;;;;;12.00;6.85;;;;;;;;;;4991350;28;20509;-79
2022/09/29 02:45:14;;;;;;;14.23;7.57;;;;;;;;;;4991229;28;20046;-78
2022/09/29 02:47:42;;;;;;;13.68;7.15;;;;;;;;;;4992366;28;20026;-80
2022/09/29 02:50:23;;;;;;;13.60;7.13;;;;;;;;;;4996930;28;20487;-81
2022/09/29 02:52:49;;;;;;;15.65;7.85;;;;;;;;;;4979957;28;20117;-81
2022/09/29 02:55:20;;;;;;;17.23;7.75;;;;;;;;;;4980747;28;20495;-81
2022/09/29 02:57:49;;;;;;;15.45;7.22;;;;;;;;;;4983549;28;20026;-81
2022/09/29 03:00:16;;;;;;;17.13;7.80;;;;;;;;;;4991344;28;20432;-80
2022/09/29 03:02:43;;;;;;;15.85;8.15;;;;;;;;;;5003917;28;20022;-81
2022/09/29 03:05:14;;;;;;;15.55;7.95;;;;;;;;;;4987411;28;20030;-82
2022/09/29 03:07:41;;;;;;;14.50;7.70;;;;;;;;;;5005742;28;20035;-80
2022/09/29 03:10:10;;;;;;;14.23;7.45;;;;;;;;;;4989472;28;20034;-81
2022/09/29 03:12:36;;;;;;;14.73;7.93;;;;;;;;;;4990104;28;20053;-80
2022/09/29 03:15:03;;;;;;;11.80;7.25;;;;;;;;;;4990194;28;20030;-80
2022/09/29 03:17:30;;;;;;;16.73;7.30;;;;;;;;;;4991137;28;20039;-81
2022/09/29 03:19:56;;;;;;;12.98;6.85;;;;;;;;;;5012735;28;20049;-79
2022/09/29 03:22:25;;;;;;;12.07;7.55;;;;;;;;;;4992228;28;20022;-80
2022/09/29 03:24:54;;;;;;;14.60;7.28;;;;;;;;;;5003040;28;20027;-81
2022/09/29 03:27:20;;;;;;;14.50;7.72;;;;;;;;;;4982650;28;20546;-79
2022/09/29 03:29:46;;;;;;;13.80;7.00;;;;;;;;;;4986201;28;20027;-81
2022/09/29 03:32:15;;;;;;;12.25;6.47;;;;;;;;;;4985384;28;20034;-81
2022/09/29 03:34:44;;;;;;;13.13;6.60;;;;;;;;;;4989118;28;20370;-81
2022/09/29 03:37:10;;;;;;;11.60;6.57;;;;;;;;;;5002872;28;20029;-83
2022/09/29 03:39:39;;;;;;;11.10;6.68;;;;;;;;;;4988892;28;20030;-82
2022/09/29 03:42:05;;;;;;;12.85;7.47;;;;;;;;;;4999919;28;20030;-80
2022/09/29 03:44:34;;;;;;;11.50;6.90;;;;;;;;;;4997915;28;20523;-80
2022/09/29 03:47:00;;;;;;;9.30;6.00;;;;;;;;;;4981025;28;20493;-80
2022/09/29 03:49:26;;;;;;;13.15;6.72;;;;;;;;;;4978338;28;20026;-80
2022/09/29 03:51:53;;;;;;;12.60;7.18;;;;;;;;;;4997304;28;20042;-79
2022/09/29 03:54:19;;;;;;;12.02;6.75;;;;;;;;;;4992489;28;20034;-81
2022/09/29 03:56:45;;;;;;;15.90;8.45;;;;;;;;;;4997522;28;20030;-80
2022/09/29 03:59:13;;;;;;;16.02;9.05;;;;;;;;;;4980841;28;20105;-80
2022/09/29 04:01:40;;;;;;;14.60;7.63;;;;;;;;;;4981366;28;20022;-80
2022/09/29 04:04:06;;;;;;;13.50;7.63;;;;;;;;;;4998917;28;20026;-80
2022/09/29 04:06:35;;;;;;;13.57;7.30;;;;;;;;;;4999014;28;20045;-80
2022/09/29 04:09:01;;;;;;;12.63;7.25;;;;;;;;;;4997245;28;20132;-81
2022/09/29 04:11:28;;;;;;;20.88;9.98;;;;;;;;;;5001924;28;20073;-80
2022/09/29 04:13:54;;;;;;;14.40;8.10;;;;;;;;;;5011224;28;20052;-79
2022/09/29 04:16:20;;;;;;;10.68;6.85;;;;;;;;;;4997661;28;20034;-79
2022/09/29 04:18:46;;;;;;;12.85;7.45;;;;;;;;;;4979262;28;20018;-79
2022/09/29 04:21:12;;;;;;;17.05;9.07;;;;;;;;;;4996693;28;20173;-78
2022/09/29 04:23:38;;;;;;;16.65;9.10;;;;;;;;;;4977406;28;20029;-79
2022/09/29 04:26:04;;;;;;;12.65;7.25;;;;;;;;;;4977381;28;20105;-79
2022/09/29 04:28:31;;;;;;;11.63;7.38;;;;;;;;;;4976795;28;20026;-79
2022/09/29 04:30:57;;;;;;;9.85;6.63;;;;;;;;;;4977390;28;20031;-79
2022/09/29 04:33:23;;;;;;;9.65;6.75;;;;;;;;;;4999709;28;20040;-82
2022/09/29 04:35:50;;;;;;;10.13;6.63;;;;;;;;;;5018950;28;20017;-81
2022/09/29 04:38:16;;;;;;;14.13;7.53;;;;;;;;;;4999880;28;20042;-82
2022/09/29 04:40:42;;;;;;;12.63;6.65;;;;;;;;;;5001813;28;20022;-81
2022/09/29 04:43:10;;;;;;;11.23;6.85;;;;;;;;;;4987033;28;20018;-80
2022/09/29 04:45:39;;;;;;;9.98;6.53;;;;;;;;;;4983142;28;20025;-81
2022/09/29 04:48:05;;;;;;;9.95;6.20;;;;;;;;;;4982145;28;20029;-81
2022/09/29 04:50:31;;;;;;;11.10;6.85;;;;;;;;;;5000167;28;20018;-81
2022/09/29 04:52:57;;;;;;;8.88;6.03;;;;;;;;;;4985505;28;20038;-81
2022/09/29 04:55:23;;;;;;;11.43;6.35;;;;;;;;;;4982342;28;20468;-82
2022/09/29 04:57:54;;;;;;;9.68;7.00;;;;;;;;;;4981868;28;20030;-81
2022/09/29 05:00:20;;;;;;;;;;;;;;;;;;4998269;28;20069;-81
2022/09/29 05:02:46;;;;;;;10.07;6.03;;;;;;;;;;4998053;28;19910;-81
2022/09/29 05:05:13;;;;;;;10.10;6.53;;;;;;;;;;4982873;28;20022;-81
2022/09/29 05:07:43;;;;;;;10.48;6.95;;;;;;;;;;4982449;28;20054;-83
2022/09/29 05:10:09;;;;;;;10.20;6.80;;;;;;;;;;4999650;28;20460;-81
2022/09/29 05:12:35;;;;;;;10.35;6.63;;;;;;;;;;5005038;28;20035;-81
2022/09/29 05:15:03;;;;;;;11.13;6.40;;;;;;;;;;4990168;28;20032;-80
2022/09/29 05:17:29;;;;;;;12.45;6.82;;;;;;;;;;4993215;28;20049;-81
2022/09/29 05:19:55;;;;;;;11.43;6.03;;;;;;;;;;5011694;28;20023;-82
2022/09/29 05:22:23;;;;;;;9.75;6.75;;;;;;;;;;5010956;28;20022;-83
2022/09/29 05:24:50;;;;;;;18.65;6.47;;;;;;;;;;5010290;28;20435;-81
2022/09/29 05:27:21;;;;;;;12.23;6.82;;;;;;;;;;4980749;28;20031;-80
2022/09/29 05:29:48;;;;;;;15.35;7.15;;;;;;;;;;4977987;28;20080;-80
2022/09/29 05:32:14;;;;;;;10.40;7.35;;;;;;;;;;4996688;28;20432;-80
2022/09/29 05:34:44;;;;;;;10.85;6.70;;;;;;;;;;4998132;28;20046;-81
2022/09/29 05:37:31;;;;;;;11.30;6.68;;;;;;;;;;4980363;28;20121;-82
2022/09/29 05:39:57;;;;;;;9.95;6.78;;;;;;;;;;4980547;28;20070;-80
2022/09/29 05:42:24;;;;;;;10.13;6.43;;;;;;;;;;4987079;28;20086;-80
2022/09/29 05:44:59;;;;;;;11.02;7.22;;;;;;;;;;4986853;28;20157;-80
2022/09/29 05:47:48;;;;;;;13.52;6.88;;;;;;;;;;5007148;28;20030;-80
2022/09/29 05:50:24;;;;;;;12.40;7.28;;;;;;;;;;4999025;28;20037;-80
2022/09/29 05:53:01;;;;;;;11.80;7.53;;;;;;;;;;4992532;28;20074;-79
2022/09/29 05:55:30;;;;;;;15.05;7.15;;;;;;;;;;4979495;28;20045;-81
2022/09/29 05:58:08;;;;;;;9.73;6.20;;;;;;;;;;4997513;28;20069;-78
2022/09/29 06:00:37;;;;;;;10.85;6.68;;;;;;;;;;4997777;28;20018;-79
2022/09/29 06:08:52;;;;;;;9.73;6.32;;;;;;;;;;4650966;26;20516;-81
2022/09/29 06:11:19;;;;;;;14.23;6.88;;;;;;;;;;4997405;28;20530;-80
2022/09/29 06:13:47;;;;;;;8.82;6.75;;;;;;;;;;5016252;28;20018;-81
2022/09/29 06:16:15;;;;;;;12.35;7.43;;;;;;;;;;4995533;28;20018;-78
2022/09/29 06:18:47;;;;;;;12.07;7.20;;;;;;;;;;5000877;28;20030;-80
2022/09/29 06:24:18;;;;;;;9.98;6.70;;;;;;;;;;5009996;28;20076;-79
2022/09/29 06:26:57;;;;;;;10.40;6.78;;;;;;;;;;4995383;28;20109;-78
2022/09/29 06:29:23;;;;;;;11.65;6.88;;;;;;;;;;4998746;28;20032;-79
2022/09/29 06:31:53;;;;;;;10.43;6.68;;;;;;;;;;5023036;28;20018;-80
2022/09/29 06:34:24;;;;;;;9.23;6.72;;;;;;;;;;5000468;28;20022;-79
2022/09/29 06:39:36;;;;;;;16.25;9.27;;;;;;;;;;5027949;28;20466;-79
2022/09/29 06:42:02;;;;;;;19.00;9.95;;;;;;;;;;5006519;28;20049;-80
2022/09/29 06:44:29;;;;;;;15.80;11.25;;;;;;;;;;5004351;28;20467;-78
2022/09/29 06:46:55;;;;;;;14.57;10.52;;;;;;;;;;4996249;28;20472;-81
2022/09/29 06:49:21;;;;;;;6.85;5.22;;;;;;;;;;5008922;28;20060;-81
2022/09/29 06:51:47;;;;;;;7.57;4.93;;;;;;;;;;5008600;28;20022;-77
2022/09/29 06:54:15;;;;;;;6.68;5.32;;;;;;;;;;5026366;28;20029;-81
2022/09/29 06:56:41;;;;;;;6.63;4.88;;;;;;;;;;5000724;28;20044;-80
2022/09/29 06:59:07;;;;;;;14.32;4.60;;;;;;;;;;5019715;28;20034;-79
2022/09/29 07:01:34;;;;;;;10.50;4.97;;;;;;;;;;5025842;28;20029;-78
2022/09/29 07:04:01;;;;;;;8.48;4.40;;;;;;;;;;5005625;28;20026;-82
2022/09/29 07:06:28;;;;;;;7.38;5.15;;;;;;;;;;5000011;28;20480;-80
2022/09/29 07:08:54;;;;;;;9.32;4.95;;;;;;;;;;5024971;28;20026;-80
2022/09/29 07:11:21;;;;;;;6.15;4.97;;;;;;;;;;5010654;28;20410;-80
2022/09/29 07:13:47;;;;;;;6.95;4.65;;;;;;;;;;5022833;28;20018;-78
2022/09/29 07:16:13;;;;;;;7.72;4.15;;;;;;;;;;5002986;28;20022;-80
2022/09/29 07:18:40;;;;;;;5.35;4.35;;;;;;;;;;5006873;28;20495;-81
2022/09/29 07:21:10;;;;;;;5.80;4.28;;;;;;;;;;5020673;28;20038;-79
2022/09/29 07:23:37;;;;;;;5.25;3.53;;;;;;;;;;4996744;28;20026;-79
2022/09/29 07:26:04;;;;;;;5.05;3.88;;;;;;;;;;4996669;28;20033;-79
2022/09/29 07:28:30;;;;;;;5.15;3.88;;;;;;;;;;5012064;28;20045;-78
2022/09/29 07:30:59;;;;;;;5.78;4.30;;;;;;;;;;5011259;28;20038;-79
2022/09/29 07:33:25;;;;;;;9.32;5.05;;;;;;;;;;5000206;28;20100;-79
2022/09/29 07:35:52;;;;;;;4.75;4.10;;;;;;;;;;5013076;28;20599;-78
2022/09/29 07:38:18;;;;;;;5.38;4.35;;;;;;;;;;5011612;28;20075;-78
2022/09/29 07:40:44;;;;;;;7.05;4.50;;;;;;;;;;5012879;28;20022;-79
2022/09/29 07:43:10;;;;;;;7.32;4.28;;;;;;;;;;5013857;28;20212;-79
2022/09/29 07:45:36;;;;;;;6.28;4.30;;;;;;;;;;5015346;28;20025;-78
2022/09/29 07:48:02;;;;;;;5.72;4.60;;;;;;;;;;5015662;28;20022;-79
2022/09/29 07:50:28;;;;;;;6.57;4.00;;;;;;;;;;5017146;28;20026;-79
2022/09/29 07:52:54;;;;;;;4.78;3.45;;;;;;;;;;5016199;28;20034;-79
2022/09/29 07:55:20;;;;;;;5.82;3.30;;;;;;;;;;5015303;28;20105;-78
2022/09/29 07:57:50;;;;;;;9.38;4.30;;;;;;;;;;5014116;28;20052;-79
2022/09/29 08:00:16;;;;;;;5.70;3.60;;;;;;;;;;5015705;28;20033;-79
2022/09/29 08:02:45;;;;;;;4.68;3.22;;;;;;;;;;5015777;28;20083;-79
2022/09/29 08:05:11;;;;;;;5.45;3.45;;;;;;;;;;5016244;28;20444;-80
2022/09/29 08:07:37;;;;;;;3.88;3.42;;;;;;;;;;5015811;28;20053;-79
2022/09/29 08:10:03;;;;;;;5.75;3.38;;;;;;;;;;5015718;28;20033;-79
2022/09/29 08:12:29;;;;;;;4.95;3.42;;;;;;;;;;5015766;28;20026;-79
2022/09/29 08:14:55;;;;;;;4.63;3.05;;;;;;;;;;5017623;28;20037;-80
2022/09/29 08:17:21;;;;;;;5.35;2.97;;;;;;;;;;5021768;28;20022;-80
2022/09/29 08:19:47;;;;;;;3.80;3.40;;;;;;;;;;5020168;28;20030;-79
2022/09/29 08:22:13;;;;;;;4.78;3.05;;;;;;;;;;5016507;28;20396;-78
2022/09/29 08:24:39;;;;;;;3.50;2.83;;;;;;;;;;5015429;28;20128;-80
2022/09/29 08:27:06;;;;;;;3.83;3.40;;;;;;;;;;5015330;28;20080;-77
2022/09/29 08:29:32;;;;;;;4.25;3.33;;;;;;;;;;4998932;28;20051;-79
2022/09/29 08:31:58;;;;;;;4.82;3.33;;;;;;;;;;5014870;28;20037;-78
2022/09/29 08:34:24;;;;;;;5.10;3.60;;;;;;;;;;5015042;28;20032;-79
2022/09/29 08:36:50;;;;;;;4.15;3.75;;;;;;;;;;5015877;28;20100;-79
2022/09/29 08:39:18;;;;;;;5.18;3.72;;;;;;;;;;5015364;28;20065;-76
2022/09/29 08:41:47;;;;;;;5.30;3.55;;;;;;;;;;4996398;28;20384;-78
2022/09/29 08:44:16;;;;;;;4.63;3.95;;;;;;;;;;4997631;28;20021;-80
2022/09/29 08:46:45;;;;;;;4.80;3.78;;;;;;;;;;4997215;28;20491;-78
2022/09/29 08:49:16;;;;;;;5.15;4.38;;;;;;;;;;4997235;28;20030;-78
2022/09/29 08:51:48;;;;;;;5.47;4.70;;;;;;;;;;5015313;28;20502;-79
2022/09/29 08:54:20;;;;;;;7.60;4.85;;;;;;;;;;5015851;28;20029;-78
2022/09/29 08:56:46;;;;;;;7.75;5.28;;;;;;;;;;4983153;28;20105;-78
2022/09/29 08:59:12;;;;;;;5.68;4.70;;;;;;;;;;5014233;28;20030;-79
2022/09/29 09:01:57;;;;;;;6.18;4.70;;;;;;;;;;5014989;28;20089;-79
2022/09/29 09:04:28;;;;;;;6.90;4.78;;;;;;;;;;5014870;28;20342;-79
2022/09/29 09:06:54;;;;;;;6.40;4.43;;;;;;;;;;5013724;28;20021;-79
2022/09/29 09:09:36;;;;;;;6.18;4.68;;;;;;;;;;4995951;28;20447;-79
2022/09/29 09:12:17;;;;;;;6.22;4.40;;;;;;;;;;5014341;28;20018;-79
2022/09/29 09:14:51;;;;;;;5.90;5.30;;;;;;;;;;5014689;28;20110;-80
2022/09/29 09:17:31;;;;;;;8.48;4.93;;;;;;;;;;4996929;28;20037;-79
2022/09/29 09:20:11;;;;;;;7.00;4.43;;;;;;;;;;5014075;28;20072;-79
2022/09/29 09:22:37;;;;;;;4.50;4.05;;;;;;;;;;5015850;28;20025;-80
2022/09/29 09:25:26;;;;;;;7.90;5.15;;;;;;;;;;5015248;28;20025;-79
2022/09/29 09:27:59;;;;;;;7.43;4.78;;;;;;;;;;4995854;28;20034;-79
2022/09/29 09:30:29;;;;;;;6.03;4.75;;;;;;;;;;5015446;28;20021;-79
2022/09/29 09:32:57;;;;;;;7.13;5.43;;;;;;;;;;4998778;28;20114;-79
2022/09/29 09:35:23;;;;;;;11.02;5.28;;;;;;;;;;5014668;28;20507;-78
2022/09/29 09:37:50;;;;;;;7.00;5.43;;;;;;;;;;5013321;28;20037;-79
2022/09/29 09:40:22;;;;;;;5.32;4.10;;;;;;;;;;5014712;28;20022;-80
2022/09/29 09:43:02;;;;;;;6.50;4.10;;;;;;;;;;5019193;28;20021;-78
2022/09/29 09:45:31;;;;;;;5.65;4.32;;;;;;;;;;4996672;28;20022;-79
2022/09/29 09:48:16;;;;;;;8.90;4.93;;;;;;;;;;5018334;28;20037;-79
2022/09/29 09:50:42;;;;;;;5.63;4.50;;;;;;;;;;5028911;28;20025;-78
2022/09/29 09:53:14;;;;;;;7.05;4.57;;;;;;;;;;5035916;28;20045;-82
2022/09/29 09:55:41;;;;;;;7.65;4.40;;;;;;;;;;5035303;28;20018;-78
2022/09/29 09:58:07;;;;;;;7.63;4.47;;;;;;;;;;5035076;28;20045;-81
2022/09/29 10:00:40;;;;;;;5.15;3.70;;;;;;;;;;5031155;28;20081;-79
2022/09/29 10:03:07;;;;;;;5.05;4.10;;;;;;;;;;5014829;28;20030;-80
2022/09/29 10:05:38;;;;;;;7.13;3.58;;;;;;;;;;5014934;28;20022;-80
2022/09/29 10:08:37;;;;;;;9.55;3.30;;;;;;;;;;5014948;28;20523;-79
2022/09/29 10:11:21;;;;;;;4.80;2.70;;;;;;;;;;4995372;28;20045;-79
2022/09/29 10:13:47;;;;;;;3.42;2.10;;;;;;;;;;5006121;28;20022;-79
2022/09/29 10:16:20;;;;;;;2.40;1.80;;;;;;;;;;4995789;28;20030;-78
2022/09/29 10:18:51;;;;;;;1.85;1.58;;;;;;;;;;5005378;28;20041;-77
2022/09/29 10:21:22;;;;;;;2.40;1.33;;;;;;;;;;5010344;28;20396;-80
2022/09/29 10:23:54;;;;;;;3.75;1.58;;;;;;;;;;5015014;28;20685;-77
2022/09/29 10:26:24;;;;;;;4.13;1.75;;;;;;;;;;4994074;28;20029;-78
2022/09/29 10:28:52;;;;;;;4.50;1.65;;;;;;;;;;5013407;28;20026;-79
2022/09/29 10:31:20;;;;;;;1.33;1.13;;;;;;;;;;5013673;28;20025;-78
2022/09/29 10:33:49;;;;;;;1.13;0.95;;;;;;;;;;5013003;28;20033;-79
2022/09/29 10:36:19;;;;;;;2.55;1.48;;;;;;;;;;5013148;28;20033;-79
2022/09/29 10:38:46;;;;;;;1.70;1.23;;;;;;;;;;5012652;28;20476;-79
2022/09/29 10:41:12;;;;;;;1.98;1.52;;;;;;;;;;4996007;28;20526;-79
2022/09/29 10:43:39;;;;;;;1.10;1.00;;;;;;;;;;5019232;28;20022;-79
2022/09/29 10:46:06;;;;;;;1.27;1.13;;;;;;;;;;5002788;28;20105;-78
2022/09/29 10:48:32;;;;;;;1.33;1.10;;;;;;;;;;5020449;28;20022;-80
2022/09/29 10:51:00;;;;;;;1.38;0.88;;;;;;;;;;5016889;28;20026;-79
2022/09/29 10:53:32;;;;;;;2.58;1.30;;;;;;;;;;5006583;28;20083;-79
2022/09/29 10:56:00;;;;;;;1.38;0.95;;;;;;;;;;5013556;28;20030;-79
2022/09/29 10:58:37;;;;;;;5.80;1.10;;;;;;;;;;5000022;28;20373;-79
2022/09/29 11:01:09;;;;;;;2.30;0.90;;;;;;;;;;5012601;28;20026;-80
2022/09/29 11:03:37;;;;;;;1.88;1.10;;;;;;;;;;5012718;28;20014;-79
2022/09/29 11:06:05;;;;;;;2.25;1.00;;;;;;;;;;5012573;28;20033;-80
2022/09/29 11:08:31;;;;;;;1.98;1.40;;;;;;;;;;5012591;28;20029;-79
2022/09/29 11:11:05;;;;;;;0.70;0.68;;;;;;;;;;5013087;28;20105;-79
2022/09/29 11:13:36;;;;;;;1.40;1.02;;;;;;;;;;5001022;28;20383;-79
2022/09/29 11:16:16;;;;;;;1.80;1.00;;;;;;;;;;4997149;28;20026;-79
2022/09/29 11:18:52;;;;;;;3.40;1.38;;;;;;;;;;5015856;28;20423;-79
2022/09/29 11:21:21;;;;;;;1.55;1.15;;;;;;;;;;5021192;28;20036;-79
2022/09/29 11:23:53;;;;;;;3.58;1.35;;;;;;;;;;5021668;28;20018;-81
2022/09/29 11:26:37;;;;;;;2.28;1.35;;;;;;;;;;5000698;28;20121;-78
2022/09/29 11:29:06;;;;;;;1.58;1.02;;;;;;;;;;5026478;28;20026;-80
2022/09/29 11:31:39;;;;;;;1.63;1.00;;;;;;;;;;5033247;28;20026;-80
2022/09/29 11:34:17;;;;;;;2.38;1.35;;;;;;;;;;5026406;28;20018;-79
2022/09/29 11:37:01;;;;;;;1.42;1.25;;;;;;;;;;5013542;28;20108;-80
2022/09/29 11:39:28;;;;;;;2.60;1.20;;;;;;;;;;5016953;28;20026;-80
2022/09/29 11:42:06;;;;;;;2.67;1.75;;;;;;;;;;5003094;28;20125;-80
2022/09/29 11:44:43;;;;;;;2.55;1.23;;;;;;;;;;5005384;28;20021;-80
2022/09/29 11:47:36;;;;;;;1.40;1.23;;;;;;;;;;5004021;28;20502;-80
2022/09/29 11:50:02;;;;;;;1.50;1.40;;;;;;;;;;5016199;28;20045;-78
2022/09/29 11:52:30;;;;;;;2.40;1.55;;;;;;;;;;4998717;28;20037;-79
2022/09/29 11:55:00;;;;;;;2.58;1.13;;;;;;;;;;5019258;28;20030;-80
2022/09/29 11:57:26;;;;;;;2.72;1.40;;;;;;;;;;5020975;28;20026;-79
2022/09/29 11:59:51;;;;;;;3.92;1.73;;;;;;;;;;5002285;28;20120;-80
2022/09/29 12:02:23;;;;;;;3.88;1.70;;;;;;;;;;5008110;28;20084;-78
2022/09/29 12:05:05;;;;;;;1.45;1.20;;;;;;;;;;5018027;28;20045;-79
2022/09/29 12:07:31;;;;;;;;;;;;;;;;;;5006507;28;20072;-79
2022/09/29 12:10:18;;;;;;;1.70;1.45;;;;;;;;;;5019516;28;20287;-80
2022/09/29 12:13:00;;;;;;;4.20;1.45;;;;;;;;;;5022238;28;20030;-78
2022/09/29 12:15:49;;;;;;;1.48;1.30;;;;;;;;;;5022164;28;20098;-79
2022/09/29 12:18:17;;;;;;;2.72;1.33;;;;;;;;;;4997953;28;20603;-78
2022/09/29 12:20:45;;;;;;;1.92;1.30;;;;;;;;;;5016271;28;20071;-78
2022/09/29 12:23:13;;;;;;;1.70;1.30;;;;;;;;;;4998425;28;20476;-79
2022/09/29 12:25:43;;;;;;;2.63;1.30;;;;;;;;;;5018051;28;20026;-79
2022/09/29 12:28:15;;;;;;;1.65;1.38;;;;;;;;;;5016821;28;20026;-79
2022/09/29 12:30:45;;;;;;;2.63;1.50;;;;;;;;;;5018534;28;20399;-79
2022/09/29 12:33:17;;;;;;;2.80;1.30;;;;;;;;;;5019724;28;20049;-80
2022/09/29 12:35:52;;;;;;;3.28;1.65;;;;;;;;;;5001735;28;20040;-80
2022/09/29 12:38:26;;;;;;;3.63;1.67;;;;;;;;;;4999675;28;20233;-79
2022/09/29 12:41:12;;;;;;;2.50;1.35;;;;;;;;;;5021415;28;20026;-79
2022/09/29 12:43:45;;;;;;;3.05;1.65;;;;;;;;;;5012827;28;20064;-80
2022/09/29 12:46:43;;;;;;;2.80;1.38;;;;;;;;;;5024032;28;20392;-80
2022/09/29 12:49:41;;;;;;;2.88;1.80;;;;;;;;;;4991028;28;20038;-79
2022/09/29 12:52:12;;;;;;;3.70;1.20;;;;;;;;;;4974505;28;20092;-80
2022/09/29 12:54:53;;;;;;;3.07;1.07;;;;;;;;;;5017421;28;20387;-78
2022/09/29 12:57:22;;;;;;;2.35;1.02;;;;;;;;;;4996641;28;20080;-78
2022/09/29 12:59:51;;;;;;;3.17;1.48;;;;;;;;;;4996605;28;20055;-80
2022/09/29 13:02:36;;;;;;;2.67;1.17;;;;;;;;;;4998506;28;20022;-79
2022/09/29 13:05:10;;;;;;;2.00;1.20;;;;;;;;;;5016199;28;20037;-81
2022/09/29 13:07:48;;;;;;;4.82;1.10;;;;;;;;;;5015777;28;20046;-79
2022/09/29 13:10:17;;;;;;;3.10;1.42;;;;;;;;;;5003922;28;20025;-79
2022/09/29 13:12:51;;;;;;;1.95;1.42;;;;;;;;;;4999413;28;20079;-80
2022/09/29 13:15:41;;;;;;;3.65;1.40;;;;;;;;;;5029614;28;20504;-79
2022/09/29 13:18:30;;;;;;;2.25;1.25;;;;;;;;;;5013730;28;20071;-80
2022/09/29 13:20:56;;;;;;;2.58;1.30;;;;;;;;;;5020919;28;20041;-80
2022/09/29 13:23:30;;;;;;;1.85;1.20;;;;;;;;;;5018558;28;20052;-78
2022/09/29 13:26:08;;;;;;;3.88;1.33;;;;;;;;;;5000352;28;20180;-78
2022/09/29 13:28:56;;;;;;;4.13;1.58;;;;;;;;;;5003647;28;20064;-80
2022/09/29 13:31:26;;;;;;;4.15;1.75;;;;;;;;;;5017293;28;20105;-79
2022/09/29 13:33:53;;;;;;;2.72;1.70;;;;;;;;;;5014934;28;20022;-80
2022/09/29 13:36:41;;;;;;;3.20;2.10;;;;;;;;;;4999103;28;21276;-79
2022/09/29 13:39:17;;;;;;;3.40;1.48;;;;;;;;;;5016276;28;20457;-79
2022/09/29 13:41:43;;;;;;;3.30;1.60;;;;;;;;;;4998748;28;20032;-81
2022/09/29 13:44:15;;;;;;;1.85;1.10;;;;;;;;;;5016026;28;20488;-80
2022/09/29 13:46:42;;;;;;;3.80;1.17;;;;;;;;;;5016872;28;20022;-79
2022/09/29 13:49:08;;;;;;;2.42;1.60;;;;;;;;;;5017443;28;20054;-80
2022/09/29 13:51:52;;;;;;;3.13;1.50;;;;;;;;;;5000140;28;20392;-80
2022/09/29 13:54:25;;;;;;;4.22;1.55;;;;;;;;;;5004035;28;20042;-80
2022/09/29 13:57:18;;;;;;;2.10;1.58;;;;;;;;;;5003485;28;20079;-78
2022/09/29 13:59:44;;;;;;;3.28;1.60;;;;;;;;;;4997694;28;20018;-79
2022/09/29 14:02:29;;;;;;;4.78;1.85;;;;;;;;;;5000081;28;20046;-79
2022/09/29 14:04:55;;;;;;;4.38;1.60;;;;;;;;;;5018735;28;20030;-78
2022/09/29 14:07:36;;;;;;;3.15;2.10;;;;;;;;;;5002760;28;20034;-79
2022/09/29 14:10:13;;;;;;;2.65;1.70;;;;;;;;;;5020689;28;20026;-81
2022/09/29 14:12:40;;;;;;;4.68;2.22;;;;;;;;;;5017462;28;20037;-82
2022/09/29 14:15:09;;;;;;;4.50;2.15;;;;;;;;;;4986142;28;20067;-82
2022/09/29 14:17:37;;;;;;;4.68;1.63;;;;;;;;;;5017051;28;20086;-81
2022/09/29 14:20:08;;;;;;;3.00;2.20;;;;;;;;;;5016437;28;20048;-80
2022/09/29 14:22:37;;;;;;;3.40;1.63;;;;;;;;;;5017349;28;20068;-80
2022/09/29 14:25:09;;;;;;;4.35;1.70;;;;;;;;;;4999251;28;20026;-80
2022/09/29 14:27:56;;;;;;;5.05;1.50;;;;;;;;;;5015191;28;20030;-79
2022/09/29 14:30:39;;;;;;;2.42;1.90;;;;;;;;;;5014389;28;20044;-80
2022/09/29 14:33:18;;;;;;;4.15;1.40;;;;;;;;;;5018858;28;20480;-80
2022/09/29 14:35:49;;;;;;;2.30;1.30;;;;;;;;;;5018855;28;20061;-80
2022/09/29 14:38:18;;;;;;;2.28;1.30;;;;;;;;;;5021796;28;20060;-78
2022/09/29 14:40:54;;;;;;;3.85;1.50;;;;;;;;;;5006271;28;20030;-80
2022/09/29 14:43:21;;;;;;;3.03;1.50;;;;;;;;;;5004701;28;20158;-78
2022/09/29 14:54:18;;;;;;;5.40;2.05;;;;;;;;;;5016060;28;20036;-80
2022/09/29 14:57:01;;;;;;;5.72;2.28;;;;;;;;;;5015590;28;20026;-80
2022/09/29 14:59:34;;;;;;;3.13;2.33;;;;;;;;;;5017174;28;20042;-80
2022/09/29 15:02:15;;;;;;;4.63;1.60;;;;;;;;;;4997168;28;20122;-79
2022/09/29 15:04:41;;;;;;;;;;;;;;;;;;5016035;28;20021;-80
2022/09/29 15:07:12;;;;;;;3.40;1.60;;;;;;;;;;5013601;28;19914;-77
2022/09/29 15:09:39;;;;;;;3.50;1.95;;;;;;;;;;5033381;28;20010;-81
2022/09/29 15:12:15;;;;;;;3.25;2.17;;;;;;;;;;5020377;28;20041;-81
2022/09/29 15:14:41;;;;;;;5.82;3.38;;;;;;;;;;5040072;28;20045;-82
2022/09/29 15:17:28;;;;;;;4.22;2.25;;;;;;;;;;5034653;28;20052;-78
2022/09/29 15:20:10;;;;;;;4.55;2.22;;;;;;;;;;5001831;28;20022;-80